Time;durP1;ratioP1;P1;durP2;ratioP2;P2;SDS_P1;SDS_P2;PMS_P1;PMS_P2;Temp;Humidity;BMP_temperature;BMP_pressure;BME280_temperature;BME280_humidity;BME280_pressure;Samples;Min_cycle;Max_cycle;Signal;HPM_P1;HPM_P2
2023/09/11 00:00:49;;;;;;;11.43;7.80;;;;;;;17.91;69.86;100415.25;1829797;77;25444;-71
2023/09/11 00:03:17;;;;;;;12.25;8.18;;;;;;;17.88;69.97;100410.52;1829902;77;25396;-71
2023/09/11 00:05:43;;;;;;;12.28;8.78;;;;;;;17.85;70.00;100407.88;1829892;78;28214;-71
2023/09/11 00:08:11;;;;;;;17.17;9.75;;;;;;;17.84;70.19;100396.73;1829925;77;25611;-72
2023/09/11 00:10:37;;;;;;;14.35;9.23;;;;;;;17.79;70.10;100400.29;1830137;77;25186;-71
2023/09/11 00:13:04;;;;;;;15.58;10.15;;;;;;;17.76;70.52;100403.73;1829999;77;25458;-71
2023/09/11 00:15:32;;;;;;;16.67;11.30;;;;;;;17.72;70.63;100403.09;1829979;78;25553;-71
2023/09/11 00:17:59;;;;;;;19.35;11.12;;;;;;;17.70;70.62;100404.00;1829920;77;28242;-71
2023/09/11 00:20:25;;;;;;;12.05;7.90;;;;;;;17.67;70.74;100395.16;1827847;77;25519;-71
2023/09/11 00:22:52;;;;;;;15.30;9.58;;;;;;;17.63;71.13;100399.73;1823759;78;25467;-71
2023/09/11 00:25:18;;;;;;;15.63;9.25;;;;;;;17.60;70.98;100395.55;1823699;78;25487;-70
2023/09/11 00:27:44;;;;;;;14.23;8.30;;;;;;;17.59;71.17;100395.31;1823777;78;25553;-70
2023/09/11 00:30:11;;;;;;;17.30;8.68;;;;;;;17.54;71.12;100390.34;1823728;78;27999;-70
2023/09/11 00:32:39;;;;;;;9.95;7.72;;;;;;;17.53;71.15;100388.75;1823653;78;25866;-68
2023/09/11 00:35:06;;;;;;;14.83;8.70;;;;;;;17.51;71.41;100380.11;1823772;78;25369;-68
2023/09/11 00:37:32;;;;;;;15.00;9.08;;;;;;;17.49;71.55;100375.58;1823705;78;25598;-68
2023/09/11 00:39:58;;;;;;;16.70;8.83;;;;;;;17.47;71.47;100377.88;1823721;77;25445;-69
2023/09/11 00:42:25;;;;;;;13.00;9.40;;;;;;;17.45;71.70;100377.44;1823746;78;28034;-69
2023/09/11 00:44:51;;;;;;;18.92;9.53;;;;;;;17.44;71.76;100369.59;1823659;77;25598;-69
2023/09/11 00:47:17;;;;;;;13.65;7.75;;;;;;;17.43;71.93;100375.61;1823687;78;25534;-69
2023/09/11 00:49:44;;;;;;;13.60;9.13;;;;;;;17.41;71.93;100368.34;1823692;78;25388;-69
2023/09/11 00:52:11;;;;;;;12.23;8.35;;;;;;;17.39;71.92;100373.38;1823724;78;25376;-69
2023/09/11 00:54:37;;;;;;;12.25;8.60;;;;;;;17.36;72.28;100367.23;1823705;78;27456;-69
2023/09/11 00:57:05;;;;;;;13.43;8.55;;;;;;;17.33;72.14;100370.67;1802982;78;25535;-69
2023/09/11 00:59:32;;;;;;;17.40;9.60;;;;;;;17.30;72.40;100366.72;1823977;78;25392;-67
2023/09/11 01:02:00;;;;;;;15.25;8.28;;;;;;;17.28;72.65;100362.19;1823667;78;27356;-68
2023/09/11 01:04:26;;;;;;;12.13;8.75;;;;;;;17.26;72.69;100366.41;1823776;78;25467;-68
2023/09/11 01:06:53;;;;;;;15.05;9.58;;;;;;;17.23;72.90;100356.17;1823742;78;27060;-67
2023/09/11 01:09:20;;;;;;;13.75;8.98;;;;;;;17.19;72.75;100356.08;1823650;78;25766;-68
2023/09/11 01:11:46;;;;;;;12.53;9.33;;;;;;;17.16;73.18;100356.78;1823757;78;25539;-68
2023/09/11 01:14:13;;;;;;;14.15;8.95;;;;;;;17.12;73.04;100355.33;1803202;78;25614;-68
2023/09/11 01:17:08;;;;;;;13.18;9.03;;;;;;;17.11;73.48;100358.41;1823762;78;25539;-68
2023/09/11 01:20:10;;;;;;;13.72;9.15;;;;;;;17.07;73.45;100354.22;1823338;78;27456;-67
2023/09/11 01:23:15;;;;;;;16.25;8.90;;;;;;;17.05;73.73;100356.52;1823197;78;25380;-67
2023/09/11 01:25:56;;;;;;;14.05;9.50;;;;;;;17.02;74.13;100357.80;1803158;78;25420;-67
2023/09/11 01:29:05;;;;;;;14.47;9.18;;;;;;;16.97;74.15;100347.91;1823704;78;25618;-68
2023/09/11 01:31:34;;;;;;;14.67;8.53;;;;;;;16.96;74.14;100355.90;1823940;78;25550;-68
2023/09/11 01:34:02;;;;;;;15.85;9.18;;;;;;;16.94;74.56;100349.97;1823842;78;27457;-68
2023/09/11 01:36:28;;;;;;;13.88;8.65;;;;;;;16.93;74.42;100359.33;1823613;78;25606;-68
2023/09/11 01:38:56;;;;;;;18.00;9.85;;;;;;;16.91;74.58;100352.84;1803341;78;25452;-68
2023/09/11 01:41:35;;;;;;;15.78;9.13;;;;;;;16.89;74.74;100349.67;1823639;78;25586;-68
2023/09/11 01:44:23;;;;;;;14.43;9.88;;;;;;;16.88;74.60;100360.95;1803309;78;25591;-68
2023/09/11 01:46:52;;;;;;;12.10;8.68;;;;;;;16.87;74.79;100359.34;1823709;78;27464;-68
2023/09/11 01:49:24;;;;;;;16.97;9.08;;;;;;;16.85;74.91;100349.34;1823736;77;25439;-67
2023/09/11 01:51:55;;;;;;;17.12;10.00;;;;;;;16.83;74.80;100351.03;1823700;78;25388;-67
2023/09/11 01:54:24;;;;;;;20.32;9.58;;;;;;;16.81;75.36;100344.55;1823677;78;25624;-67
2023/09/11 01:56:50;;;;;;;20.53;11.60;;;;;;;16.77;75.17;100341.50;1823945;78;25613;-67
2023/09/11 01:59:17;;;;;;;13.50;9.40;;;;;;;16.73;75.52;100334.58;1823731;78;27533;-67
2023/09/11 02:01:44;;;;;;;14.93;10.38;;;;;;;16.71;75.49;100338.23;1823557;78;25518;-68
2023/09/11 02:04:10;;;;;;;16.73;9.98;;;;;;;16.70;75.58;100338.58;1823700;78;25399;-68
2023/09/11 02:06:36;;;;;;;19.23;10.95;;;;;;;16.64;75.81;100331.80;1823709;78;25547;-68
2023/09/11 02:09:04;;;;;;;14.10;9.70;;;;;;;16.61;75.89;100332.70;1823877;78;25582;-68
2023/09/11 02:11:31;;;;;;;15.00;9.98;;;;;;;16.59;75.95;100336.35;1823874;78;27444;-68
2023/09/11 02:13:57;;;;;;;15.13;10.35;;;;;;;16.57;76.12;100333.19;1823745;77;25487;-67
2023/09/11 02:16:23;;;;;;;16.40;9.80;;;;;;;16.57;76.23;100333.19;1823836;78;25364;-67
2023/09/11 02:18:50;;;;;;;17.50;10.40;;;;;;;16.55;76.22;100336.84;1823824;78;25998;-68
2023/09/11 02:21:16;;;;;;;14.23;9.85;;;;;;;16.56;76.26;100336.26;1825980;78;25500;-68
2023/09/11 02:23:42;;;;;;;14.23;10.43;;;;;;;16.56;76.21;100330.80;1829963;77;27461;-67
2023/09/11 02:26:08;;;;;;;18.80;9.40;;;;;;;16.54;76.44;100338.55;1829841;78;25612;-68
2023/09/11 02:28:35;;;;;;;17.10;10.63;;;;;;;16.51;76.42;100333.78;1829910;77;25590;-67
2023/09/11 02:31:02;;;;;;;17.55;9.73;;;;;;;16.48;76.69;100332.55;1829929;78;25609;-68
2023/09/11 02:33:28;;;;;;;17.90;10.05;;;;;;;16.43;76.60;100338.27;1829979;77;25362;-69
2023/09/11 02:35:57;;;;;;;14.45;9.70;;;;;;;16.39;76.59;100332.67;1830048;77;27506;-68
2023/09/11 02:38:23;;;;;;;10.98;9.05;;;;;;;16.37;76.79;100337.70;1830009;77;25565;-68
2023/09/11 02:40:50;;;;;;;16.75;9.70;;;;;;;16.34;76.92;100335.66;1829891;77;25454;-70
2023/09/11 02:43:16;;;;;;;17.92;11.15;;;;;;;16.32;76.93;100331.12;1829869;78;25546;-69
2023/09/11 02:45:44;;;;;;;16.32;9.60;;;;;;;16.31;77.21;100328.19;1829991;77;25432;-69
2023/09/11 02:48:11;;;;;;;14.05;10.10;;;;;;;16.30;77.09;100325.80;1829940;77;28409;-69
2023/09/11 02:50:38;;;;;;;13.65;9.58;;;;;;;16.29;77.25;100331.02;1813735;78;25608;-68
2023/09/11 02:53:09;;;;;;;13.80;9.70;;;;;;;16.27;77.14;100333.31;1829929;78;25371;-68
2023/09/11 02:55:42;;;;;;;16.30;9.85;;;;;;;16.24;77.44;100330.69;1829909;78;26100;-68
2023/09/11 02:58:08;;;;;;;16.57;9.78;;;;;;;16.20;77.60;100327.86;1829967;78;25436;-68
2023/09/11 03:00:35;;;;;;;16.60;10.03;;;;;;;16.19;77.78;100330.93;1829890;78;27454;-68
2023/09/11 03:03:03;;;;;;;15.35;10.45;;;;;;;16.18;78.07;100323.91;1829814;77;25526;-69
2023/09/11 03:05:33;;;;;;;16.37;9.98;;;;;;;16.16;78.21;100321.52;1829928;78;25406;-69
2023/09/11 03:08:01;;;;;;;15.28;9.53;;;;;;;16.13;78.17;100326.88;1829924;78;25593;-68
2023/09/11 03:10:29;;;;;;;19.17;10.85;;;;;;;16.11;78.23;100321.76;1829963;77;25612;-68
2023/09/11 03:12:55;;;;;;;13.30;9.23;;;;;;;16.11;78.19;100313.58;1829894;77;28196;-69
2023/09/11 03:15:27;;;;;;;16.93;9.23;;;;;;;16.12;78.34;100318.45;1829771;77;25368;-68
2023/09/11 03:17:53;;;;;;;15.53;10.13;;;;;;;16.11;78.25;100318.25;1828649;77;25447;-68
2023/09/11 03:20:20;;;;;;;13.43;10.30;;;;;;;16.11;78.12;100315.52;1829822;78;26116;-68
2023/09/11 03:22:49;;;;;;;15.18;10.65;;;;;;;16.11;78.28;100312.78;1824783;77;25799;-67
2023/09/11 03:25:16;;;;;;;15.18;10.38;;;;;;;16.10;78.22;100315.28;1823770;78;28279;-68
2023/09/11 03:27:44;;;;;;;15.13;9.25;;;;;;;16.08;78.25;100311.53;1823683;78;25605;-67
2023/09/11 03:30:12;;;;;;;12.63;9.28;;;;;;;16.08;78.46;100307.44;1803204;78;25546;-68
2023/09/11 03:32:39;;;;;;;14.00;10.72;;;;;;;16.07;78.37;100315.39;1823734;78;25578;-67
2023/09/11 03:35:06;;;;;;;14.40;9.93;;;;;;;16.08;78.65;100306.66;1823765;78;25596;-67
2023/09/11 03:37:32;;;;;;;17.32;10.00;;;;;;;16.06;78.67;100302.33;1823768;78;27468;-67
2023/09/11 03:39:59;;;;;;;13.58;9.45;;;;;;;16.04;78.59;100299.16;1823695;78;25529;-67
2023/09/11 03:42:25;;;;;;;16.62;10.58;;;;;;;16.04;78.61;100300.52;1823731;78;25526;-68
2023/09/11 03:44:52;;;;;;;17.98;10.38;;;;;;;16.02;78.87;100293.80;1823750;78;25592;-69
2023/09/11 03:47:18;;;;;;;18.70;10.88;;;;;;;16.02;78.83;100296.53;1823749;78;25424;-68
2023/09/11 03:49:44;;;;;;;19.48;10.75;;;;;;;15.98;78.95;100300.52;1823729;78;27525;-68
2023/09/11 03:52:13;;;;;;;14.75;10.40;;;;;;;15.97;79.01;100303.05;1820682;78;25671;-68
2023/09/11 03:54:40;;;;;;;21.52;10.70;;;;;;;15.95;79.02;100303.94;1823784;78;25621;-69
2023/09/11 03:57:06;;;;;;;19.45;10.60;;;;;;;15.92;79.31;100297.83;1823809;78;25598;-68
2023/09/11 03:59:32;;;;;;;20.57;11.55;;;;;;;15.90;79.19;100292.48;1823811;78;25570;-68
2023/09/11 04:01:58;;;;;;;14.05;10.35;;;;;;;15.88;79.23;100294.19;1823736;78;27468;-69
2023/09/11 04:04:25;;;;;;;15.32;10.93;;;;;;;15.89;79.34;100295.78;1823672;78;25716;-68
2023/09/11 04:06:53;;;;;;;14.20;10.55;;;;;;;15.89;79.53;100297.73;1820807;78;25305;-66
2023/09/11 04:09:20;;;;;;;18.37;10.63;;;;;;;15.87;79.73;100294.77;1823686;78;25547;-67
2023/09/11 04:11:46;;;;;;;15.68;10.43;;;;;;;15.85;79.52;100289.41;1823736;78;25620;-68
2023/09/11 04:14:12;;;;;;;15.03;10.63;;;;;;;15.84;79.65;100290.57;1823694;78;27528;-68
2023/09/11 04:16:38;;;;;;;17.45;11.30;;;;;;;15.82;79.82;100288.77;1823597;78;25509;-68
2023/09/11 04:19:04;;;;;;;18.67;10.15;;;;;;;15.82;79.93;100286.03;1823746;78;25506;-68
2023/09/11 04:21:31;;;;;;;15.72;11.50;;;;;;;15.81;79.73;100284.44;1823536;77;25512;-68
2023/09/11 04:23:57;;;;;;;17.17;11.93;;;;;;;15.81;80.13;100282.49;1823716;78;25365;-68
2023/09/11 04:26:23;;;;;;;16.65;11.28;;;;;;;15.80;79.97;100286.92;1823725;78;27522;-68
2023/09/11 04:28:49;;;;;;;24.00;11.83;;;;;;;15.80;80.35;100288.28;1823639;78;25490;-68
2023/09/11 04:31:15;;;;;;;15.85;11.03;;;;;;;15.78;80.36;100287.30;1823690;78;25510;-68
2023/09/11 04:33:42;;;;;;;15.25;10.85;;;;;;;15.76;80.44;100286.04;1823646;78;25549;-68
2023/09/11 04:36:08;;;;;;;17.73;11.53;;;;;;;15.74;80.47;100288.29;1823710;78;25367;-72
2023/09/11 04:38:34;;;;;;;16.32;11.10;;;;;;;15.75;80.68;100291.22;1823683;78;27551;-68
2023/09/11 04:41:01;;;;;;;15.35;10.88;;;;;;;15.75;80.86;100287.13;1823615;78;25580;-67
2023/09/11 04:43:27;;;;;;;14.45;11.45;;;;;;;15.74;80.77;100286.34;1823727;78;25629;-67
2023/09/11 04:45:53;;;;;;;14.53;10.48;;;;;;;15.75;81.05;100288.50;1823757;78;25612;-68
2023/09/11 04:48:19;;;;;;;20.60;11.33;;;;;;;15.75;80.94;100284.41;1823849;78;25570;-68
2023/09/11 04:50:45;;;;;;;15.38;11.22;;;;;;;15.75;80.88;100280.31;1823708;78;28025;-68
2023/09/11 04:53:12;;;;;;;14.85;11.15;;;;;;;15.76;81.17;100282.73;1823604;78;25519;-68
2023/09/11 04:55:38;;;;;;;18.40;11.45;;;;;;;15.77;81.40;100286.27;1823708;78;25612;-68
2023/09/11 04:58:04;;;;;;;20.23;11.85;;;;;;;15.76;81.64;100280.00;1823642;78;25536;-68
2023/09/11 05:00:31;;;;;;;17.05;11.33;;;;;;;15.77;81.81;100278.09;1823687;78;25585;-67
2023/09/11 05:02:57;;;;;;;16.48;12.10;;;;;;;15.78;82.10;100283.20;1823699;78;27504;-67
2023/09/11 05:05:23;;;;;;;18.35;12.15;;;;;;;15.82;82.41;100280.58;1823593;78;26105;-67
2023/09/11 05:07:49;;;;;;;16.50;10.88;;;;;;;15.83;82.37;100282.16;1823812;78;25436;-68
2023/09/11 05:10:19;;;;;;;18.87;12.60;;;;;;;15.86;82.61;100277.37;1823899;78;25606;-68
2023/09/11 05:12:46;;;;;;;19.35;12.20;;;;;;;15.91;82.75;100279.08;1823599;78;25432;-67
2023/09/11 05:15:14;;;;;;;20.90;12.07;;;;;;;15.95;82.95;100277.23;1822410;78;27354;-66
2023/09/11 05:17:42;;;;;;;15.50;12.63;;;;;;;16.00;83.10;100276.41;1822729;78;25770;-67
2023/09/11 05:20:09;;;;;;;19.37;12.23;;;;;;;16.05;83.44;100276.17;1822705;78;25601;-67
2023/09/11 05:22:35;;;;;;;18.30;11.80;;;;;;;16.10;83.33;100278.45;1804187;78;25657;-68
2023/09/11 05:25:02;;;;;;;26.37;12.63;;;;;;;16.15;83.60;100278.20;1825918;78;25732;-69
2023/09/11 05:27:30;;;;;;;20.65;12.20;;;;;;;16.20;83.36;100275.23;1825921;78;27880;-68
2023/09/11 05:29:56;;;;;;;22.10;13.13;;;;;;;16.27;83.71;100276.00;1826808;78;25589;-68
2023/09/11 05:32:25;;;;;;;23.00;12.60;;;;;;;16.35;83.92;100282.66;1826951;78;25542;-67
2023/09/11 05:34:53;;;;;;;19.62;12.93;;;;;;;16.43;83.79;100276.84;1826907;78;25403;-67
2023/09/11 05:37:20;;;;;;;16.97;12.10;;;;;;;16.54;83.89;100279.27;1826920;78;25553;-68
2023/09/11 05:39:48;;;;;;;20.37;12.47;;;;;;;16.63;83.77;100280.47;1826866;78;27484;-68
2023/09/11 05:42:14;;;;;;;16.05;12.10;;;;;;;16.75;83.68;100279.60;1826861;78;25501;-68
2023/09/11 05:44:40;;;;;;;23.00;13.50;;;;;;;16.87;83.75;100280.13;1827057;78;25410;-67
2023/09/11 05:47:07;;;;;;;18.25;12.25;;;;;;;16.96;83.60;100281.55;1826967;78;25535;-67
2023/09/11 05:49:38;;;;;;;19.75;12.18;;;;;;;17.08;83.51;100279.89;1771300;81;25456;-68
2023/09/11 05:52:06;;;;;;;23.47;12.98;;;;;;;17.20;83.41;100281.70;1695220;84;27467;-66
2023/09/11 05:54:34;;;;;;;18.50;12.47;;;;;;;17.32;83.31;100281.05;1716402;83;25807;-67
2023/09/11 05:57:03;;;;;;;19.60;12.40;;;;;;;17.46;83.23;100281.94;1695253;84;25552;-67
2023/09/11 05:59:29;;;;;;;18.67;11.38;;;;;;;17.61;83.22;100275.45;1716393;83;25615;-67
2023/09/11 06:01:56;;;;;;;17.12;12.47;;;;;;;17.75;82.84;100273.01;1695246;84;25546;-67
2023/09/11 06:04:22;;;;;;;22.48;12.82;;;;;;;17.90;82.68;100275.52;1716257;83;27483;-68
2023/09/11 06:06:48;;;;;;;17.75;11.88;;;;;;;18.04;82.27;100275.01;1695166;84;25583;-67
2023/09/11 06:09:15;;;;;;;23.10;12.63;;;;;;;18.18;81.95;100274.50;1716212;83;25457;-67
2023/09/11 06:11:41;;;;;;;21.10;12.43;;;;;;;18.34;81.74;100277.95;1695214;84;25530;-67
2023/09/11 06:14:07;;;;;;;20.85;12.82;;;;;;;18.50;81.43;100273.75;1745959;80;25561;-66
2023/09/11 06:16:33;;;;;;;19.62;12.95;;;;;;;18.66;81.08;100273.63;1781945;80;27485;-67
2023/09/11 06:19:01;;;;;;;17.92;11.60;;;;;;;18.82;80.71;100281.75;1759240;81;25595;-68
2023/09/11 06:21:28;;;;;;;20.85;13.50;;;;;;;19.00;80.39;100280.70;1776123;80;25400;-68
2023/09/11 06:23:54;;;;;;;22.27;12.37;;;;;;;19.15;79.71;100272.91;1756528;81;25833;-68
2023/09/11 06:26:21;;;;;;;22.95;12.75;;;;;;;19.33;79.67;100275.95;1776429;80;25468;-67
2023/09/11 06:28:47;;;;;;;19.35;12.80;;;;;;;19.51;79.23;100272.11;1756364;81;27016;-67
2023/09/11 06:31:14;;;;;;;22.55;12.78;;;;;;;19.70;78.69;100276.67;1776352;80;25655;-68
2023/09/11 06:33:42;;;;;;;17.30;11.43;;;;;;;19.87;77.87;100282.78;1776434;80;25633;-67
2023/09/11 06:36:08;;;;;;;18.70;11.63;;;;;;;20.06;78.15;100278.53;1776362;80;25535;-68
2023/09/11 06:38:34;;;;;;;17.90;11.68;;;;;;;20.31;76.82;100278.02;1776392;80;25540;-67
2023/09/11 06:41:03;;;;;;;24.02;12.03;;;;;;;20.42;76.63;100280.91;1776422;79;27040;-68
2023/09/11 06:43:29;;;;;;;17.45;12.15;;;;;;;20.64;76.99;100279.97;1776406;80;25972;-67
2023/09/11 06:45:56;;;;;;;21.05;11.80;;;;;;;20.86;75.88;100279.59;1776521;80;25535;-67
2023/09/11 06:48:22;;;;;;;20.85;11.68;;;;;;;21.04;75.31;100283.06;1756303;81;26128;-67
2023/09/11 06:50:54;;;;;;;14.63;12.68;;;;;;;21.21;75.07;100275.53;1776415;80;25371;-67
2023/09/11 06:53:20;;;;;;;15.95;11.90;;;;;;;21.42;73.86;100280.41;1776519;80;28127;-68
2023/09/11 06:55:47;;;;;;;18.17;11.55;;;;;;;21.62;73.72;100270.52;1756288;81;25470;-68
2023/09/11 06:58:15;;;;;;;15.58;11.15;;;;;;;21.92;73.42;100274.41;1776368;80;25551;-68
2023/09/11 07:00:41;;;;;;;16.87;11.83;;;;;;;22.23;72.47;100273.54;1756312;81;25539;-68
2023/09/11 07:03:08;;;;;;;17.73;11.25;;;;;;;22.42;72.09;100275.19;1770413;81;25590;-68
2023/09/11 07:05:36;;;;;;;18.70;11.08;;;;;;;22.67;71.28;100274.46;1756299;81;27544;-68
2023/09/11 07:08:04;;;;;;;17.20;11.43;;;;;;;22.94;70.89;100270.73;1776343;80;25726;-68
2023/09/11 07:10:30;;;;;;;17.57;10.68;;;;;;;23.20;69.71;100266.80;1776446;80;25440;-68
2023/09/11 07:12:56;;;;;;;22.25;11.08;;;;;;;23.41;68.99;100272.90;1776291;80;25541;-67
2023/09/11 07:15:23;;;;;;;19.42;11.00;;;;;;;23.63;67.97;100269.50;1776460;80;25570;-66
2023/09/11 07:17:51;;;;;;;14.85;10.75;;;;;;;23.78;66.82;100259.17;1776376;80;27504;-66
2023/09/11 07:20:17;;;;;;;20.17;10.65;;;;;;;23.97;67.02;100270.97;1776310;80;25462;-67
2023/09/11 07:22:45;;;;;;;18.07;10.70;;;;;;;24.14;66.70;100271.48;1776250;80;25448;-67
2023/09/11 07:25:14;;;;;;;20.88;10.53;;;;;;;24.38;66.39;100268.41;1776682;80;25921;-67
2023/09/11 07:27:40;;;;;;;19.00;11.20;;;;;;;24.75;65.84;100271.13;1756374;81;25416;-67
2023/09/11 07:30:09;;;;;;;17.70;10.55;;;;;;;24.98;64.70;100262.88;1776347;80;27005;-67
2023/09/11 07:32:37;;;;;;;19.65;11.75;;;;;;;25.34;64.05;100263.95;1756234;81;25588;-67
2023/09/11 07:35:06;;;;;;;16.25;10.58;;;;;;;25.62;62.93;100260.68;1776475;80;25519;-67
2023/09/11 07:37:33;;;;;;;;;;;;;;;25.96;62.47;100264.07;1779013;80;25539;-67
2023/09/11 07:40:01;;;;;;;15.25;10.60;;;;;;;26.21;61.25;100258.98;1776532;80;25651;-68
2023/09/11 07:42:28;;;;;;;26.40;11.37;;;;;;;26.56;61.00;100255.52;1756499;81;28031;-68
2023/09/11 07:44:54;;;;;;;17.55;10.63;;;;;;;26.98;60.16;100256.65;1776315;80;25549;-68
2023/09/11 07:47:20;;;;;;;18.05;9.90;;;;;;;27.17;58.53;100256.52;1776353;80;25399;-68
2023/09/11 07:49:47;;;;;;;15.08;9.50;;;;;;;27.42;58.39;100258.86;1756236;81;25622;-68
2023/09/11 07:52:15;;;;;;;18.42;10.05;;;;;;;27.86;57.77;100254.03;1770455;80;25533;-68
2023/09/11 10:58:31;;;;;;;7.70;6.25;;;;;;;37.03;28.17;100143.47;1868342;76;25324;-69
2023/09/11 11:00:59;;;;;;;9.65;7.20;;;;;;;36.77;28.17;100135.02;1824620;78;25423;-69
2023/09/11 11:03:32;;;;;;;10.28;6.45;;;;;;;36.74;28.46;100141.00;1824591;78;27510;-69
2023/09/11 11:06:02;;;;;;;10.55;7.90;;;;;;;36.91;29.00;100141.82;1824484;78;25361;-69
2023/09/11 11:08:36;;;;;;;13.50;7.05;;;;;;;36.96;28.70;100141.10;1824493;78;25589;-68
2023/09/11 11:11:04;;;;;;;8.93;7.22;;;;;;;36.74;28.36;100143.05;1824513;78;25556;-70
2023/09/11 11:13:33;;;;;;;9.83;7.67;;;;;;;36.53;28.46;100145.09;1824643;78;25436;-69
2023/09/11 11:16:23;;;;;;;12.30;7.17;;;;;;;36.46;29.09;100140.02;1824536;78;28090;-69
2023/09/11 11:18:54;;;;;;;10.32;7.30;;;;;;;36.68;28.91;100135.13;1810477;78;25806;-68
2023/09/11 11:21:20;;;;;;;11.35;7.00;;;;;;;36.90;28.87;100136.03;1824529;78;25604;-68
2023/09/11 11:24:00;;;;;;;12.93;7.62;;;;;;;37.26;29.14;100143.09;1824360;77;25416;-67
2023/09/11 11:26:31;;;;;;;13.13;7.87;;;;;;;37.19;28.14;100136.50;1824543;78;25569;-69
2023/09/11 11:29:00;;;;;;;8.38;7.30;;;;;;;36.80;28.29;100139.67;1824470;78;28461;-68
2023/09/11 11:31:30;;;;;;;8.03;7.25;;;;;;;36.54;28.45;100138.97;1824392;78;25530;-69
2023/09/11 11:34:00;;;;;;;10.18;7.83;;;;;;;36.32;28.75;100133.83;1824479;78;25532;-66
2023/09/11 11:36:29;;;;;;;10.18;8.48;;;;;;;36.24;29.23;100137.69;1824413;78;25724;-71
2023/09/11 11:38:59;;;;;;;10.82;8.00;;;;;;;36.40;29.43;100138.39;1824581;78;25169;-67
2023/09/11 11:41:27;;;;;;;9.20;7.75;;;;;;;36.69;29.55;100130.41;1824540;78;27457;-67
2023/09/11 11:43:57;;;;;;;9.08;7.03;;;;;;;36.73;29.54;100127.40;1824460;78;25530;-72
2023/09/11 11:46:28;;;;;;;11.55;8.65;;;;;;;36.74;29.57;100128.96;1824475;78;25417;-73
2023/09/11 11:48:51;;;;;;;11.40;6.87;;;;;;;36.83;29.11;100126.77;1824093;78;25505;-66
2023/09/11 11:51:33;;;;;;;11.60;8.00;;;;;;;36.61;29.43;100117.41;1824534;78;25435;-60
2023/09/11 11:54:00;;;;;;;11.38;8.00;;;;;;;36.52;29.91;100121.00;1824452;78;27384;-64
2023/09/11 11:56:28;;;;;;;12.03;8.37;;;;;;;36.43;29.58;100116.29;1824573;78;25356;-64
2023/09/11 11:59:00;;;;;;;9.93;7.87;;;;;;;36.34;29.52;100128.47;1825262;78;25552;-72
2023/09/11 12:01:27;;;;;;;11.00;8.13;;;;;;;35.84;29.88;100119.46;1804160;78;25561;-72
2023/09/11 12:03:53;;;;;;;11.83;8.43;;;;;;;35.59;29.86;100113.02;1824875;78;25382;-71
2023/09/11 12:06:21;;;;;;;11.12;8.35;;;;;;;35.54;30.54;100114.50;1824821;78;27441;-66
2023/09/11 12:08:49;;;;;;;9.13;7.40;;;;;;;35.25;29.92;100118.88;1824197;78;35164;-65
2023/09/11 12:11:18;;;;;;;12.23;8.00;;;;;;;35.09;30.37;100106.68;1824002;78;25447;-64
2023/09/11 12:13:45;;;;;;;9.65;7.42;;;;;;;35.35;30.76;100104.87;1823800;78;25413;-65
2023/09/11 12:16:14;;;;;;;13.00;7.80;;;;;;;35.58;31.13;100110.84;1823933;78;25601;-62
2023/09/11 12:18:42;;;;;;;10.95;7.42;;;;;;;35.76;30.96;100111.28;1823929;78;27495;-62
2023/09/11 12:21:09;;;;;;;9.98;7.78;;;;;;;35.98;30.85;100116.45;1823838;78;25658;-64
2023/09/11 12:23:37;;;;;;;8.17;6.90;;;;;;;36.09;30.26;100110.97;1824064;78;25432;-64
2023/09/11 12:26:05;;;;;;;10.78;7.67;;;;;;;36.34;30.19;100119.27;1823877;78;25442;-66
2023/09/11 12:28:34;;;;;;;13.78;7.08;;;;;;;36.29;29.73;100103.84;1824043;78;25539;-57
2023/09/11 12:31:02;;;;;;;8.33;6.90;;;;;;;36.41;28.72;100104.75;1823788;78;28140;-59
2023/09/11 12:33:34;;;;;;;9.18;6.65;;;;;;;36.24;28.08;100111.58;1823820;78;30021;-59
2023/09/11 12:36:04;;;;;;;7.58;6.78;;;;;;;36.05;28.66;100109.64;1823850;78;25388;-59
2023/09/11 12:38:30;;;;;;;7.58;6.80;;;;;;;35.98;29.06;100099.58;1823873;78;25718;-60
2023/09/11 12:40:58;;;;;;;8.23;6.83;;;;;;;35.83;28.80;100103.84;1823849;78;25587;-59
2023/09/11 12:43:26;;;;;;;9.78;6.85;;;;;;;35.73;28.60;100101.64;1823373;78;27415;-59
2023/09/11 12:45:52;;;;;;;6.90;5.75;;;;;;;35.58;28.91;100098.19;1823866;78;25627;-60
2023/09/11 12:48:19;;;;;;;10.63;7.40;;;;;;;35.42;29.31;100092.45;1823759;77;25642;-59
2023/09/11 12:50:49;;;;;;;9.65;7.22;;;;;;;35.46;29.09;100092.25;1823929;78;25624;-62
2023/09/11 12:53:15;;;;;;;9.90;7.45;;;;;;;35.39;29.08;100092.02;1824028;78;25660;-63
2023/09/11 12:55:43;;;;;;;8.75;7.40;;;;;;;35.09;28.19;100092.63;1823828;78;28137;-63
2023/09/11 12:58:09;;;;;;;;;;;;;;;34.76;28.64;100090.77;1829965;78;25499;-63
2023/09/11 13:00:43;;;;;;;10.08;8.08;;;;;;;34.52;28.82;100088.75;1830198;78;25518;-62
2023/09/11 13:03:12;;;;;;;12.07;7.45;;;;;;;34.52;28.66;100090.16;1829933;78;25371;-62
2023/09/11 13:05:41;;;;;;;8.68;7.87;;;;;;;34.45;28.90;100091.14;1829932;77;25379;-63
2023/09/11 13:08:11;;;;;;;8.80;7.25;;;;;;;34.57;29.00;100092.30;1829949;77;27461;-63
2023/09/11 13:10:37;;;;;;;8.10;7.17;;;;;;;34.53;29.30;100086.11;1829807;77;25398;-64
2023/09/11 13:13:07;;;;;;;9.83;7.65;;;;;;;34.78;29.71;100084.80;1830099;77;25538;-63
2023/09/11 13:15:36;;;;;;;10.25;7.85;;;;;;;34.89;29.61;100080.64;1830004;78;25446;-63
2023/09/11 13:18:04;;;;;;;11.63;7.30;;;;;;;35.00;29.47;100085.08;1830116;78;25524;-64
2023/09/11 13:20:31;;;;;;;9.30;7.53;;;;;;;35.13;29.61;100079.17;1829820;78;27469;-63
2023/09/11 13:22:58;;;;;;;7.08;6.37;;;;;;;35.27;29.28;100082.62;1829869;78;25395;-61
2023/09/11 13:25:26;;;;;;;7.37;6.67;;;;;;;35.37;29.19;100080.48;1829922;77;25512;-62
2023/09/11 13:27:53;;;;;;;8.05;6.95;;;;;;;35.43;29.18;100085.55;1829845;78;25534;-62
2023/09/11 13:30:22;;;;;;;8.53;7.67;;;;;;;35.57;28.99;100076.97;1829913;77;25599;-63
2023/09/11 13:32:48;;;;;;;9.65;7.65;;;;;;;35.66;28.29;100081.06;1829842;78;27552;-64
2023/09/11 13:35:16;;;;;;;8.70;7.25;;;;;;;35.65;27.74;100086.53;1829785;78;25743;-64
2023/09/11 13:37:45;;;;;;;8.15;6.90;;;;;;;35.46;28.47;100076.15;1829943;77;25169;-63
2023/09/11 13:40:11;;;;;;;10.23;7.87;;;;;;;35.38;28.72;100077.04;1813713;78;25405;-63
2023/09/11 13:42:39;;;;;;;13.05;8.15;;;;;;;35.34;28.13;100075.19;1830122;78;25384;-64
2023/09/11 13:45:15;;;;;;;8.50;7.70;;;;;;;35.13;28.02;100071.52;1829998;77;28502;-64
2023/09/11 13:47:40;;;;;;;13.28;7.85;;;;;;;34.88;28.00;100081.92;1829783;77;25385;-63
2023/09/11 13:50:09;;;;;;;9.98;7.72;;;;;;;34.65;28.08;100068.85;1830088;77;25463;-63
2023/09/11 13:52:36;;;;;;;8.48;7.55;;;;;;;34.63;28.43;100059.34;1830155;78;25578;-64
2023/09/11 13:55:08;;;;;;;8.93;7.97;;;;;;;34.63;28.49;100071.34;1830004;78;32483;-64
2023/09/11 13:57:34;;;;;;;8.70;7.90;;;;;;;34.47;28.41;100062.75;1826172;78;27341;-64
2023/09/11 14:00:04;;;;;;;10.90;8.05;;;;;;;34.25;28.23;100064.48;1829662;78;25866;-64
2023/09/11 14:02:31;;;;;;;10.13;8.68;;;;;;;33.99;28.82;100062.13;1829840;77;25375;-64
2023/09/11 14:04:57;;;;;;;11.53;8.28;;;;;;;33.93;28.85;100054.21;1829775;78;25432;-64
2023/09/11 14:07:24;;;;;;;8.93;8.00;;;;;;;33.90;29.21;100051.59;1829777;77;25588;-64
2023/09/11 14:09:51;;;;;;;8.68;7.72;;;;;;;33.90;29.55;100046.75;1829955;78;28069;-64
2023/09/11 14:12:19;;;;;;;12.50;8.35;;;;;;;33.95;29.18;100043.31;1829893;77;25448;-64
2023/09/11 14:14:45;;;;;;;8.50;7.60;;;;;;;33.89;29.62;100040.23;1829777;78;25576;-64
2023/09/11 14:17:11;;;;;;;8.43;6.65;;;;;;;33.89;29.91;100045.84;1829729;77;25555;-64
2023/09/11 14:19:37;;;;;;;9.50;8.45;;;;;;;33.91;30.21;100045.50;1829806;77;25380;-64
2023/09/11 14:22:06;;;;;;;9.05;8.10;;;;;;;33.98;29.51;100047.18;1829790;77;27452;-64